Time;durP1;ratioP1;P1;durP2;ratioP2;P2;SDS_P1;SDS_P2;PMS_P1;PMS_P2;Temp;Humidity;BMP_temperature;BMP_pressure;BME280_temperature;BME280_humidity;BME280_pressure;Samples;Min_cycle;Max_cycle;Signal;HPM_P1;HPM_P2
2022/08/23 00:01:33;;;;;;;;;;;19.50;99.90;;;;;;5060331;28;19916;-77
2022/08/23 00:04:00;;;;;;;;;;;19.60;99.90;;;;;;5061000;28;19966;-76
2022/08/23 00:06:26;;;;;;;;;;;19.60;99.90;;;;;;5064964;28;19916;-77
2022/08/23 00:08:52;;;;;;;;;;;19.50;99.90;;;;;;5064698;28;19920;-76
2022/08/23 00:11:24;;;;;;;;;;;19.50;99.90;;;;;;5062949;28;20861;-76
2022/08/23 00:13:50;;;;;;;;;;;19.50;99.90;;;;;;5065304;28;19946;-77
2022/08/23 00:16:15;;;;;;;;;;;19.50;99.90;;;;;;5065207;28;19916;-76
2022/08/23 00:18:41;;;;;;;;;;;19.40;99.90;;;;;;5065402;28;20013;-77
2022/08/23 00:21:06;;;;;;;;;;;19.50;99.90;;;;;;5065612;28;19999;-77
2022/08/23 00:23:32;;;;;;;;;;;19.40;99.90;;;;;;5091918;28;20295;-76
2022/08/23 00:26:00;;;;;;;;;;;19.40;99.90;;;;;;5062327;28;19990;-76
2022/08/23 00:28:26;;;;;;;;;;;19.30;99.90;;;;;;5065450;28;19943;-77
2022/08/23 00:30:52;;;;;;;;;;;19.30;99.90;;;;;;5065541;28;20002;-77
2022/08/23 00:33:17;;;;;;;;;;;19.20;99.90;;;;;;5064454;28;19925;-77
2022/08/23 00:35:43;;;;;;;;;;;19.30;99.90;;;;;;5065442;28;19912;-76
2022/08/23 00:38:09;;;;;;;;;;;19.30;99.90;;;;;;5064430;28;19916;-77
2022/08/23 00:40:34;;;;;;;;;;;19.30;99.90;;;;;;5064812;28;19916;-77
2022/08/23 00:48:43;;;;;;;;;;;19.20;99.90;;;;;;5064141;28;19966;-76
2022/08/23 00:51:14;;;;;;;;;;;19.10;99.90;;;;;;5064291;28;19920;-77
2022/08/23 00:53:43;;;;;;;;;;;19.20;99.90;;;;;;5062854;28;19925;-76
2022/08/23 00:56:11;;;;;;;;;;;19.10;99.90;;;;;;5062076;28;19920;-76
2022/08/23 00:58:36;;;;;;;;;;;19.10;99.90;;;;;;5065368;28;19969;-77
2022/08/23 01:01:03;;;;;;;;;;;19.00;99.90;;;;;;5065786;28;19937;-76
2022/08/23 01:03:30;;;;;;;;;;;19.00;99.90;;;;;;5065968;28;20401;-76
2022/08/23 01:05:58;;;;;;;;;;;18.90;99.90;;;;;;5091096;28;19920;-76
2022/08/23 01:08:26;;;;;;;;;;;18.80;99.90;;;;;;5060266;28;19921;-76
2022/08/23 01:11:00;;;;;;;;;;;18.80;99.90;;;;;;5061964;28;19920;-76
2022/08/23 01:13:28;;;;;;;;;;;18.80;99.90;;;;;;5063167;28;20490;-77
2022/08/23 01:16:01;;;;;;;;;;;18.80;99.90;;;;;;5064874;28;20380;-76
2022/08/23 01:18:27;;;;;;;;;;;18.80;99.90;;;;;;5062320;28;20014;-76
2022/08/23 01:20:55;;;;;;;;;;;18.90;99.90;;;;;;5061427;28;20019;-77
2022/08/23 01:23:21;;;;;;;;;;;18.90;99.90;;;;;;5064318;28;20338;-77
2022/08/23 01:25:46;;;;;;;;;;;18.90;99.90;;;;;;5063587;28;20003;-77
2022/08/23 01:28:12;;;;;;;;;;;18.90;99.90;;;;;;5063314;28;19916;-76
2022/08/23 01:30:40;;;;;;;;;;;18.80;99.90;;;;;;5063761;28;20619;-77
2022/08/23 01:33:06;;;;;;;;;;;18.80;99.90;;;;;;5078739;28;20405;-77
2022/08/23 01:35:43;;;;;;;;;;;18.80;99.90;;;;;;5063440;28;19917;-77
2022/08/23 01:38:09;;;;;;;;;;;18.70;99.90;;;;;;5061555;28;19951;-76
2022/08/23 01:40:37;;;;;;;;;;;18.70;99.90;;;;;;5062754;28;19917;-76
2022/08/23 01:43:03;;;;;;;;;;;18.70;99.90;;;;;;5059973;28;19942;-76
2022/08/23 01:45:29;;;;;;;;;;;18.70;99.90;;;;;;5063908;28;19999;-76
2022/08/23 01:47:56;;;;;;;;;;;18.70;99.90;;;;;;5063490;28;19927;-75
2022/08/23 01:50:23;;;;;;;;;;;18.70;99.90;;;;;;5061232;28;19932;-77
2022/08/23 01:52:48;;;;;;;;;;;18.70;99.90;;;;;;5058846;28;19920;-77
2022/08/23 01:55:14;;;;;;;;;;;18.60;99.90;;;;;;5063816;28;20352;-77
2022/08/23 01:57:41;;;;;;;;;;;18.60;99.90;;;;;;5061968;28;20485;-77
2022/08/23 02:00:07;;;;;;;;;;;18.60;99.90;;;;;;5062479;28;19916;-77
2022/08/23 02:02:32;;;;;;;;;;;18.60;99.90;;;;;;5062799;28;19969;-77
2022/08/23 02:04:58;;;;;;;;;;;18.50;99.90;;;;;;5063316;28;19920;-76
2022/08/23 02:07:27;;;;;;;;;;;18.60;99.90;;;;;;5062698;28;19917;-77
2022/08/23 02:09:53;;;;;;;;;;;18.60;99.90;;;;;;5063036;28;19931;-76
2022/08/23 02:12:18;;;;;;;;;;;18.50;99.90;;;;;;5063262;28;19917;-76
2022/08/23 02:14:44;;;;;;;;;;;18.60;99.90;;;;;;5061974;28;19975;-77
2022/08/23 02:17:09;;;;;;;;;;;18.50;99.90;;;;;;5062137;28;19921;-76
2022/08/23 02:19:36;;;;;;;;;;;18.50;99.90;;;;;;5062528;28;19917;-76
2022/08/23 02:22:03;;;;;;;;;;;18.50;99.90;;;;;;5061195;28;19947;-77
2022/08/23 02:24:29;;;;;;;;;;;18.50;99.90;;;;;;5060762;28;20027;-76
2022/08/23 02:26:56;;;;;;;;;;;18.40;99.90;;;;;;5062055;28;19920;-77
2022/08/23 02:29:22;;;;;;;;;;;18.40;99.90;;;;;;5061036;28;20410;-76
2022/08/23 02:31:48;;;;;;;;;;;18.30;99.90;;;;;;5062681;28;19920;-77
2022/08/23 02:34:14;;;;;;;;;;;18.30;99.90;;;;;;5062508;28;20382;-77
2022/08/23 02:36:40;;;;;;;;;;;18.30;99.90;;;;;;5062762;28;19953;-77
2022/08/23 02:39:06;;;;;;;;;;;18.20;99.90;;;;;;5061408;28;19916;-77
2022/08/23 02:41:32;;;;;;;;;;;18.10;99.90;;;;;;5061992;28;19961;-77
2022/08/23 02:43:59;;;;;;;;;;;18.20;99.90;;;;;;5062303;28;19924;-77
2022/08/23 02:46:24;;;;;;;;;;;18.20;99.90;;;;;;5056078;28;19923;-77
2022/08/23 02:48:50;;;;;;;;;;;18.10;99.90;;;;;;5060957;28;19916;-77
2022/08/23 02:51:16;;;;;;;;;;;18.10;99.90;;;;;;5056249;28;19924;-76
2022/08/23 02:53:42;;;;;;;;;;;18.10;99.90;;;;;;5062040;28;19924;-76
2022/08/23 02:56:08;;;;;;;;;;;18.10;99.90;;;;;;5062042;28;19930;-77
2022/08/23 02:58:33;;;;;;;;;;;18.10;99.90;;;;;;5056622;28;20020;-77
2022/08/23 03:00:59;;;;;;;;;;;18.10;99.90;;;;;;5061592;28;19987;-77
2022/08/23 03:03:25;;;;;;;;;;;18.10;99.90;;;;;;5062445;28;19916;-77
2022/08/23 03:05:51;;;;;;;;;;;18.10;99.90;;;;;;5060424;28;20302;-77
2022/08/23 03:08:17;;;;;;;;;;;18.10;99.90;;;;;;5062989;28;19917;-77
2022/08/23 03:10:44;;;;;;;;;;;18.10;99.90;;;;;;5055035;28;20400;-77
2022/08/23 03:13:10;;;;;;;;;;;18.10;99.90;;;;;;5062082;28;20342;-76
2022/08/23 03:15:36;;;;;;;;;;;18.00;99.90;;;;;;5061156;28;19927;-77
2022/08/23 03:18:02;;;;;;;;;;;18.00;99.90;;;;;;5060716;28;19927;-77
2022/08/23 03:20:27;;;;;;;;;;;17.90;99.90;;;;;;5061025;28;19920;-78
2022/08/23 03:22:53;;;;;;;;;;;17.90;99.90;;;;;;5060740;28;19926;-77
2022/08/23 03:25:19;;;;;;;;;;;17.90;99.90;;;;;;5061722;28;20003;-77
2022/08/23 03:27:44;;;;;;;;;;;18.00;99.90;;;;;;5062760;28;19912;-78
2022/08/23 03:30:10;;;;;;;;;;;17.90;99.90;;;;;;5056016;28;19927;-78
2022/08/23 03:32:35;;;;;;;;;;;17.80;99.90;;;;;;5058556;28;20022;-78
2022/08/23 03:35:01;;;;;;;;;;;17.80;99.90;;;;;;5059491;28;19924;-78
2022/08/23 03:37:26;;;;;;;;;;;17.80;99.90;;;;;;5060947;28;19917;-78
2022/08/23 03:39:52;;;;;;;;;;;17.80;99.90;;;;;;5061598;28;19916;-78
2022/08/23 03:42:18;;;;;;;;;;;17.80;99.90;;;;;;5062049;28;19927;-76
2022/08/23 03:44:44;;;;;;;;;;;17.80;99.90;;;;;;5061987;28;20524;-76
2022/08/23 03:47:10;;;;;;;;;;;17.80;99.90;;;;;;5061862;28;19956;-77
2022/08/23 03:49:36;;;;;;;;;;;17.80;99.90;;;;;;5062693;28;20006;-77
2022/08/23 03:52:02;;;;;;;;;;;17.70;99.90;;;;;;5060946;28;19924;-77
2022/08/23 03:54:28;;;;;;;;;;;17.70;99.90;;;;;;5053239;28;19932;-76
2022/08/23 03:56:59;;;;;;;;;;;17.70;99.90;;;;;;5061145;28;19916;-79
2022/08/23 03:59:25;;;;;;;;;;;17.60;99.90;;;;;;5060038;28;19913;-79
2022/08/23 04:01:51;;;;;;;;;;;17.70;99.90;;;;;;5062231;28;20018;-79
2022/08/23 04:04:16;;;;;;;;;;;17.70;99.90;;;;;;5061548;28;20423;-80
2022/08/23 04:06:44;;;;;;;;;;;17.60;99.90;;;;;;5059580;28;19916;-79
2022/08/23 04:09:10;;;;;;;;;;;17.60;99.90;;;;;;5062141;28;20299;-79
2022/08/23 04:11:35;;;;;;;;;;;17.70;99.90;;;;;;5060259;28;19955;-79
2022/08/23 04:14:01;;;;;;;;;;;17.60;99.90;;;;;;5060408;28;20053;-78
2022/08/23 04:16:29;;;;;;;;;;;17.60;99.90;;;;;;5059151;28;19959;-79
2022/08/23 04:18:54;;;;;;;;;;;17.50;99.90;;;;;;5061725;28;20359;-79
2022/08/23 04:21:21;;;;;;;;;;;17.60;99.90;;;;;;5061076;28;19917;-79
2022/08/23 04:23:46;;;;;;;;;;;17.60;99.90;;;;;;5057271;28;19916;-80
2022/08/23 04:26:12;;;;;;;;;;;17.50;99.90;;;;;;5061742;28;21027;-79
2022/08/23 04:28:37;;;;;;;;;;;17.50;99.90;;;;;;5060633;28;20379;-78
2022/08/23 04:31:03;;;;;;;;;;;17.50;99.90;;;;;;5061974;28;20392;-79
2022/08/23 04:33:31;;;;;;;;;;;17.40;99.90;;;;;;5060656;28;19912;-79
2022/08/23 04:35:57;;;;;;;;;;;17.40;99.90;;;;;;5061138;28;19955;-79
2022/08/23 04:38:22;;;;;;;;;;;17.40;99.90;;;;;;5058145;28;19924;-77
2022/08/23 04:43:32;;;;;;;;;;;17.40;99.90;;;;;;5059703;28;20009;-80
2022/08/23 04:45:58;;;;;;;;;;;17.30;99.90;;;;;;5052907;28;20371;-78
2022/08/23 04:48:23;;;;;;;;;;;17.40;99.90;;;;;;5058492;28;19932;-79
2022/08/23 04:50:49;;;;;;;;;;;17.40;99.90;;;;;;5056362;28;19934;-78
2022/08/23 04:53:14;;;;;;;;;;;17.40;99.90;;;;;;5058077;28;19935;-76
2022/08/23 04:55:40;;;;;;;;;;;17.30;99.90;;;;;;5055018;28;19950;-76
2022/08/23 04:58:06;;;;;;;;;;;17.40;99.90;;;;;;5063564;28;19916;-77
2022/08/23 05:00:32;;;;;;;;;;;17.50;99.90;;;;;;5053641;28;19917;-79
2022/08/23 05:02:57;;;;;;;;;;;17.50;99.90;;;;;;5061331;28;20502;-79
2022/08/23 05:05:23;;;;;;;;;;;17.70;99.90;;;;;;5083185;28;19990;-78
2022/08/23 05:07:48;;;;;;;;;;;17.90;99.90;;;;;;5087034;28;19917;-81
2022/08/23 05:10:15;;;;;;;;;;;18.20;99.90;;;;;;5060461;28;20384;-77
2022/08/23 05:12:41;;;;;;;;;;;18.10;99.90;;;;;;5063529;28;19916;-78
2022/08/23 05:15:08;;;;;;;;;;;18.00;99.90;;;;;;5056730;28;19924;-77
2022/08/23 05:17:34;;;;;;;;;;;17.80;99.90;;;;;;5061664;28;20555;-78
2022/08/23 05:19:59;;;;;;;;;;;18.20;99.90;;;;;;5061726;28;19912;-80
2022/08/23 05:22:25;;;;;;;;;;;19.10;99.90;;;;;;5058365;28;20284;-87
2022/08/23 05:24:50;;;;;;;;;;;19.70;99.90;;;;;;5063178;28;19916;-83
2022/08/23 05:27:16;;;;;;;;;;;20.20;99.90;;;;;;5058516;28;20471;-82
2022/08/23 05:29:41;;;;;;;;;;;20.30;99.90;;;;;;5061229;28;19969;-83
2022/08/23 05:32:07;;;;;;;;;;;20.30;99.90;;;;;;5064464;28;20008;-83
2022/08/23 05:34:33;;;;;;;;;;;20.80;99.90;;;;;;5063603;28;19927;-82
2022/08/23 05:36:58;;;;;;;;;;;21.10;99.90;;;;;;5064720;28;19916;-84
2022/08/23 05:39:24;;;;;;;;;;;20.90;99.90;;;;;;5072202;28;19916;-83
2022/08/23 05:41:49;;;;;;;;;;;20.30;99.90;;;;;;5062202;28;19993;-82
2022/08/23 05:44:15;;;;;;;;;;;19.80;99.90;;;;;;5062181;28;19917;-84
2022/08/23 05:46:41;;;;;;;;;;;20.00;99.90;;;;;;5051050;28;19934;-84
2022/08/23 05:49:07;;;;;;;;;;;20.20;99.90;;;;;;5066025;28;19969;-87
2022/08/23 05:51:33;;;;;;;;;;;20.60;99.90;;;;;;5065834;28;19975;-84
2022/08/23 05:54:00;;;;;;;;;;;20.90;99.90;;;;;;5065406;28;19928;-83
2022/08/23 05:56:27;;;;;;;;;;;20.80;99.90;;;;;;5065849;28;19919;-80
2022/08/23 05:58:55;;;;;;;;;;;21.40;99.90;;;;;;5064160;28;19919;-79
2022/08/23 06:01:21;;;;;;;;;;;21.90;99.90;;;;;;5064969;28;19920;-79
2022/08/23 06:03:47;;;;;;;;;;;21.80;99.90;;;;;;5064460;28;19920;-79
2022/08/23 06:06:14;;;;;;;;;;;21.50;99.90;;;;;;5065512;28;20357;-80
2022/08/23 06:08:41;;;;;;;;;;;21.40;99.90;;;;;;5064690;28;19973;-80
2022/08/23 06:11:08;;;;;;;;;;;22.10;99.90;;;;;;5059068;28;19948;-76
2022/08/23 06:13:34;;;;;;;;;;;22.80;99.90;;;;;;5057281;28;19921;-76
2022/08/23 06:16:00;;;;;;;;;;;24.20;99.90;;;;;;5064215;28;20389;-76
2022/08/23 06:18:26;;;;;;;;;;;25.00;99.90;;;;;;5064098;28;19913;-75
2022/08/23 06:21:17;;;;;;;;;;;25.40;99.90;;;;;;5065364;28;19912;-76
2022/08/23 06:23:43;;;;;;;;;;;25.60;99.90;;;;;;5063592;28;19916;-76
2022/08/23 06:26:19;;;;;;;;;;;24.90;99.90;;;;;;5063607;28;19955;-75
2022/08/23 06:28:45;;;;;;;;;;;24.70;99.90;;;;;;5050150;28;20300;-75
2022/08/23 06:31:11;;;;;;;;;;;25.00;99.90;;;;;;5064650;28;19994;-76
2022/08/23 06:33:37;;;;;;;;;;;25.40;99.90;;;;;;5064787;28;19920;-76
2022/08/23 06:36:05;;;;;;;;;;;25.30;99.90;;;;;;5064173;28;19916;-76
2022/08/23 06:38:30;;;;;;;;;;;25.00;99.90;;;;;;5064231;28;20368;-75
2022/08/23 06:41:04;;;;;;;;;;;25.20;99.90;;;;;;5064335;28;19928;-76
2022/08/23 06:43:30;;;;;;;;;;;25.40;99.90;;;;;;5063772;28;19916;-76
2022/08/23 06:46:05;;;;;;;;;;;26.00;99.90;;;;;;5056180;28;19940;-76
2022/08/23 06:48:31;;;;;;;;;;;26.20;99.90;;;;;;5062660;28;19916;-76
2022/08/23 06:50:56;;;;;;;;;;;26.30;99.90;;;;;;5064175;28;20422;-75
2022/08/23 06:53:22;;;;;;;;;;;25.90;99.90;;;;;;5064153;28;19981;-76
2022/08/23 06:55:48;;;;;;;;;;;25.30;99.90;;;;;;5064115;28;19912;-75
2022/08/23 06:58:13;;;;;;;;;;;25.40;99.90;;;;;;5063514;28;19966;-75
2022/08/23 07:00:39;;;;;;;;;;;26.10;99.90;;;;;;5064022;28;19909;-75
2022/08/23 07:03:04;;;;;;;;;;;26.70;99.60;;;;;;5062662;28;20585;-76
2022/08/23 07:05:30;;;;;;;;;;;27.10;99.10;;;;;;5063733;28;19916;-76
2022/08/23 07:07:55;;;;;;;;;;;27.40;99.00;;;;;;5064244;28;19913;-76
2022/08/23 07:10:21;;;;;;;;;;;28.40;97.30;;;;;;5063990;28;19923;-75
2022/08/23 07:12:48;;;;;;;;;;;28.20;96.80;;;;;;5063964;28;19912;-76
2022/08/23 07:15:14;;;;;;;;;;;27.80;96.70;;;;;;5063274;28;19948;-75
2022/08/23 07:17:39;;;;;;;;;;;27.60;96.50;;;;;;5061915;28;19912;-74
2022/08/23 07:20:05;;;;;;;;;;;28.50;95.70;;;;;;5068795;28;19912;-76
2022/08/23 07:22:31;;;;;;;;;;;28.70;94.50;;;;;;5072175;28;19935;-76
2022/08/23 07:24:57;;;;;;;;;;;29.40;93.40;;;;;;5063156;28;20371;-76
2022/08/23 07:27:22;;;;;;;;;;;30.30;91.40;;;;;;5063808;28;19912;-76
2022/08/23 07:29:48;;;;;;;;;;;30.30;90.60;;;;;;5063921;28;19920;-76
2022/08/23 07:32:13;;;;;;;;;;;30.80;90.00;;;;;;5061118;28;20655;-75
2022/08/23 07:34:39;;;;;;;;;;;31.00;88.50;;;;;;5078575;28;19928;-76
2022/08/23 07:37:05;;;;;;;;;;;31.60;86.10;;;;;;5045464;28;19913;-76
2022/08/23 07:39:31;;;;;;;;;;;31.80;86.00;;;;;;5043946;28;19952;-76
2022/08/23 07:42:00;;;;;;;;;;;31.50;85.80;;;;;;5043701;28;20740;-76
2022/08/23 07:44:25;;;;;;;;;;;31.80;83.90;;;;;;5055162;28;19917;-76
2022/08/23 07:46:51;;;;;;;;;;;32.10;83.90;;;;;;5047688;28;19958;-76
2022/08/23 07:49:16;;;;;;;;;;;31.30;82.90;;;;;;5044638;28;19913;-76
2022/08/23 07:51:44;;;;;;;;;;;30.90;84.90;;;;;;5051682;28;19931;-76
2022/08/23 07:54:10;;;;;;;;;;;31.00;83.90;;;;;;5080629;28;19968;-76
2022/08/23 07:56:36;;;;;;;;;;;31.20;83.50;;;;;;5059466;28;19955;-82
2022/08/23 07:59:02;;;;;;;;;;;30.60;84.20;;;;;;5043421;28;20420;-83
2022/08/23 08:01:28;;;;;;;;;;;30.20;84.20;;;;;;5046245;28;20550;-83
2022/08/23 08:03:55;;;;;;;;;;;30.30;83.80;;;;;;5045306;28;19917;-83
2022/08/23 08:06:22;;;;;;;;;;;31.10;82.90;;;;;;5050638;28;19920;-83
2022/08/23 08:08:48;;;;;;;;;;;32.80;78.50;;;;;;5061211;28;19916;-83
2022/08/23 08:11:15;;;;;;;;;;;33.80;76.40;;;;;;5061792;28;19912;-84
2022/08/23 08:13:41;;;;;;;;;;;34.10;73.90;;;;;;5063068;28;19958;-83
2022/08/23 08:16:08;;;;;;;;;;;34.10;75.10;;;;;;5056375;28;19917;-83
2022/08/23 08:18:34;;;;;;;;;;;34.60;73.50;;;;;;5053231;28;19913;-83
2022/08/23 08:21:00;;;;;;;;;;;34.70;71.50;;;;;;5043411;28;19948;-83
2022/08/23 08:23:28;;;;;;;;;;;34.80;70.60;;;;;;5059542;28;19963;-82
2022/08/23 08:26:04;;;;;;;;;;;34.70;69.70;;;;;;5047022;28;19917;-82
2022/08/23 08:28:30;;;;;;;;;;;35.40;67.80;;;;;;5049578;28;19916;-81
2022/08/23 08:30:56;;;;;;;;;;;34.30;67.20;;;;;;5063391;28;19916;-86
2022/08/23 08:33:22;;;;;;;;;;;33.90;68.60;;;;;;5049374;28;20411;-85
2022/08/23 08:35:48;;;;;;;;;;;34.50;67.40;;;;;;5085773;28;19954;-86
2022/08/23 08:38:13;;;;;;;;;;;35.80;66.20;;;;;;5052022;28;19923;-86
2022/08/23 08:40:39;;;;;;;;;;;35.40;65.30;;;;;;5095114;28;19919;-86
2022/08/23 08:43:28;;;;;;;;;;;35.40;66.30;;;;;;5053906;28;19927;-85
2022/08/23 08:46:19;;;;;;;;;;;36.30;64.90;;;;;;5055919;28;19920;-85
2022/08/23 08:48:48;;;;;;;;;;;35.00;63.40;;;;;;5028786;28;20464;-85
2022/08/23 08:51:32;;;;;;;;;;;34.40;64.30;;;;;;5033926;28;20012;-86
2022/08/23 08:53:58;;;;;;;;;;;34.50;66.40;;;;;;5029950;28;19917;-86
2022/08/23 08:56:26;;;;;;;;;;;35.80;62.70;;;;;;5026457;28;19920;-76
2022/08/23 08:58:58;;;;;;;;;;;35.30;62.30;;;;;;5028762;28;19917;-76
2022/08/23 09:01:25;;;;;;;;;;;35.90;61.60;;;;;;5026089;28;19913;-76
2022/08/23 09:03:51;;;;;;;;;;;36.80;61.70;;;;;;5039368;28;20388;-76
2022/08/23 09:06:22;;;;;;;;;;;36.30;61.00;;;;;;5026646;28;19956;-76
2022/08/23 09:08:51;;;;;;;;;;;36.70;59.80;;;;;;5026489;28;19913;-76
2022/08/23 09:11:23;;;;;;;;;;;36.90;60.90;;;;;;5027067;28;20019;-76
2022/08/23 09:13:55;;;;;;;;;;;36.40;61.90;;;;;;5026040;28;19917;-76
2022/08/23 09:16:43;;;;;;;;;;;37.10;61.20;;;;;;5039924;28;19951;-76
2022/08/23 09:19:09;;;;;;;;;;;36.80;61.10;;;;;;5043336;28;20197;-76
2022/08/23 09:21:44;;;;;;;;;;;37.60;60.80;;;;;;5043196;28;20023;-76
2022/08/23 09:24:09;;;;;;;;;;;37.20;62.10;;;;;;5043773;28;19913;-76
2022/08/23 09:26:35;;;;;;;;;;;36.30;59.80;;;;;;5062924;28;20723;-76
2022/08/23 09:29:03;;;;;;;;;;;36.80;60.70;;;;;;5066452;28;19912;-76
2022/08/23 09:31:40;;;;;;;;;;;38.00;59.70;;;;;;5065943;28;19923;-76
2022/08/23 09:34:06;;;;;;;;;;;37.20;60.10;;;;;;5066632;28;19927;-76
2022/08/23 09:36:33;;;;;;;;;;;36.50;61.50;;;;;;5066057;28;19912;-76
2022/08/23 09:39:01;;;;;;;;;;;35.70;62.40;;;;;;5065795;28;19931;-76
2022/08/23 09:41:47;;;;;;;;;;;35.10;63.80;;;;;;5065773;28;20660;-76
2022/08/23 09:44:28;;;;;;;;;;;34.70;62.30;;;;;;5065629;28;19916;-76
2022/08/23 09:47:03;;;;;;;;;;;35.40;60.20;;;;;;5065644;28;19912;-76
2022/08/23 09:49:29;;;;;;;;;;;36.00;60.70;;;;;;5065696;28;19923;-76
2022/08/23 09:51:59;;;;;;;;;;;34.70;59.50;;;;;;5063756;28;19925;-77
2022/08/23 09:54:32;;;;;;;;;;;35.30;61.50;;;;;;5062552;28;19935;-76
2022/08/23 09:57:01;;;;;;;;;;;36.40;60.20;;;;;;5056042;28;19917;-83
2022/08/23 09:59:32;;;;;;;;;;;35.80;58.90;;;;;;5061770;28;19920;-84
2022/08/23 10:01:59;;;;;;;;;;;35.80;59.30;;;;;;5057164;28;20011;-84
2022/08/23 10:04:27;;;;;;;;;;;36.60;59.20;;;;;;5056903;28;19920;-84
2022/08/23 10:06:53;;;;;;;;;;;36.80;58.20;;;;;;5059969;28;19916;-86
2022/08/23 10:09:22;;;;;;;;;;;35.70;58.40;;;;;;5046528;28;19939;-86
2022/08/23 10:11:47;;;;;;;;;;;33.00;61.80;;;;;;5049380;28;20505;-85
2022/08/23 10:14:18;;;;;;;;;;;33.00;62.50;;;;;;5054823;28;19932;-83
2022/08/23 10:17:03;;;;;;;;;;;33.70;62.70;;;;;;5061029;28;19920;-84
2022/08/23 10:19:35;;;;;;;;;;;33.30;61.10;;;;;;5050557;28;19927;-82
2022/08/23 10:22:20;;;;;;;;;;;33.50;61.20;;;;;;5062792;28;19936;-82
2022/08/23 10:24:54;;;;;;;;;;;32.80;62.40;;;;;;5048502;28;19924;-82
2022/08/23 10:30:11;;;;;;;;;;;32.00;64.30;;;;;;5053233;28;20489;-83
2022/08/23 10:32:36;;;;;;;;;;;31.50;68.20;;;;;;5065213;28;20410;-83
2022/08/23 10:35:05;;;;;;;;;;;32.00;65.40;;;;;;5060191;28;19956;-81
2022/08/23 10:37:54;;;;;;;;;;;31.40;68.10;;;;;;5060192;28;19916;-83
2022/08/23 10:40:20;;;;;;;;;;;32.30;69.40;;;;;;5044917;28;19909;-81
2022/08/23 10:42:53;;;;;;;;;;;32.40;67.80;;;;;;5057540;28;20416;-81
2022/08/23 10:45:23;;;;;;;;;;;32.20;67.00;;;;;;5052664;28;20327;-81
2022/08/23 10:47:52;;;;;;;;;;;32.40;66.30;;;;;;5052813;28;20140;-82
2022/08/23 10:50:19;;;;;;;;;;;32.40;68.30;;;;;;5050256;28;19921;-81
2022/08/23 10:52:45;;;;;;;;;;;32.40;65.90;;;;;;5054914;28;19912;-81
2022/08/23 10:55:23;;;;;;;;;;;31.90;65.10;;;;;;5045307;28;19966;-76
2022/08/23 10:57:51;;;;;;;;;;;30.70;66.60;;;;;;5054287;28;20484;-76
2022/08/23 11:00:21;;;;;;;;;;;31.10;67.00;;;;;;5046101;28;20309;-76
2022/08/23 11:02:57;;;;;;;;;;;31.50;68.60;;;;;;5054455;28;19920;-76
2022/08/23 11:05:25;;;;;;;;;;;32.10;66.50;;;;;;5047131;28;20322;-76
2022/08/23 11:07:56;;;;;;;;;;;32.40;68.70;;;;;;5061718;28;19927;-76
2022/08/23 11:10:40;;;;;;;;;;;32.10;64.50;;;;;;5058758;28;19979;-76
2022/08/23 11:13:12;;;;;;;;;;;31.90;64.80;;;;;;5052650;28;19916;-75
2022/08/23 11:15:42;;;;;;;;;;;31.30;66.00;;;;;;5061072;28;19989;-75
2022/08/23 11:18:09;;;;;;;;;;;30.90;65.80;;;;;;5057319;28;20419;-76
2022/08/23 11:20:54;;;;;;;;;;;30.40;66.80;;;;;;5063278;28;19973;-76
2022/08/23 11:23:38;;;;;;;;;;;30.40;67.20;;;;;;5057491;28;19913;-76
2022/08/23 11:26:06;;;;;;;;;;;30.10;68.80;;;;;;5062173;28;19957;-76
2022/08/23 11:28:37;;;;;;;;;;;30.20;68.40;;;;;;5061800;28;20302;-75
2022/08/23 11:31:06;;;;;;;;;;;30.10;68.50;;;;;;5059967;28;20031;-76
2022/08/23 11:33:34;;;;;;;;;;;30.30;67.70;;;;;;5057675;28;19959;-77
2022/08/23 11:36:10;;;;;;;;;;;30.30;68.80;;;;;;5055633;28;20280;-76
2022/08/23 11:38:48;;;;;;;;;;;30.50;70.20;;;;;;5061578;28;19932;-76
2022/08/23 11:41:23;;;;;;;;;;;30.50;67.90;;;;;;5057999;28;19923;-76
2022/08/23 11:44:09;;;;;;;;;;;30.60;69.80;;;;;;5058108;28;19990;-76
2022/08/23 11:46:36;;;;;;;;;;;31.20;71.00;;;;;;5063342;28;20747;-75
2022/08/23 11:49:20;;;;;;;;;;;31.10;69.70;;;;;;5081381;28;20483;-75
2022/08/23 11:52:04;;;;;;;;;;;30.70;67.80;;;;;;5060476;28;19925;-76
2022/08/23 11:54:40;;;;;;;;;;;31.10;67.00;;;;;;5061760;28;20074;-76
2022/08/23 11:57:14;;;;;;;;;;;30.40;67.60;;;;;;5057369;28;20005;-75
2022/08/23 11:59:49;;;;;;;;;;;31.40;69.90;;;;;;5082984;28;20015;-76
2022/08/23 12:02:32;;;;;;;;;;;31.60;67.00;;;;;;5064366;28;20404;-76
2022/08/23 12:05:03;;;;;;;;;;;31.40;66.60;;;;;;5049387;28;20714;-76
2022/08/23 12:07:42;;;;;;;;;;;31.30;67.10;;;;;;5061916;28;19921;-76
2022/08/23 12:10:08;;;;;;;;;;;31.30;66.30;;;;;;5055798;28;19913;-76
2022/08/23 12:12:34;;;;;;;;;;;30.60;65.20;;;;;;5049661;28;19917;-76
2022/08/23 12:15:02;;;;;;;;;;;30.40;66.50;;;;;;5052437;28;19931;-75
2022/08/23 12:17:28;;;;;;;;;;;29.80;67.60;;;;;;5062893;28;20379;-75
2022/08/23 12:20:07;;;;;;;;;;;29.40;67.60;;;;;;5060820;28;19950;-77
2022/08/23 12:22:51;;;;;;;;;;;29.10;69.40;;;;;;5055225;28;19916;-76
2022/08/23 12:25:18;;;;;;;;;;;29.30;69.10;;;;;;5084542;28;20368;-76
2022/08/23 12:27:45;;;;;;;;;;;29.70;68.50;;;;;;5065910;28;20269;-76
2022/08/23 12:30:19;;;;;;;;;;;29.90;69.70;;;;;;5047818;28;19920;-76
2022/08/23 12:32:54;;;;;;;;;;;30.10;68.30;;;;;;5046985;28;19920;-76
2022/08/23 12:35:19;;;;;;;;;;;30.20;67.80;;;;;;5046468;28;19932;-76
2022/08/23 12:37:45;;;;;;;;;;;29.80;66.00;;;;;;5046802;28;19912;-76
2022/08/23 12:40:12;;;;;;;;;;;29.90;65.90;;;;;;5046618;28;19922;-76
2022/08/23 12:42:38;;;;;;;;;;;29.90;65.70;;;;;;5046396;28;19922;-76
2022/08/23 12:45:12;;;;;;;;;;;29.80;65.20;;;;;;5049690;28;19913;-76
2022/08/23 12:47:41;;;;;;;;;;;29.60;66.70;;;;;;5046926;28;20371;-76
2022/08/23 12:50:12;;;;;;;;;;;29.90;66.80;;;;;;5046710;28;20007;-77
2022/08/23 12:52:38;;;;;;;;;;;29.90;67.90;;;;;;5046815;28;20382;-75
2022/08/23 12:55:14;;;;;;;;;;;29.80;67.50;;;;;;5046782;28;19924;-76
2022/08/23 12:57:41;;;;;;;;;;;29.90;68.00;;;;;;5046652;28;19913;-83
2022/08/23 13:00:16;;;;;;;;;;;30.40;70.10;;;;;;5046570;28;19912;-83
2022/08/23 13:02:45;;;;;;;;;;;30.50;70.10;;;;;;5046678;28;20469;-83
2022/08/23 13:05:13;;;;;;;;;;;30.60;67.40;;;;;;5088204;28;19995;-83
2022/08/23 13:07:39;;;;;;;;;;;30.90;67.90;;;;;;5047105;28;19998;-83
2022/08/23 13:10:06;;;;;;;;;;;31.30;69.80;;;;;;5046649;28;20352;-83
2022/08/23 13:12:31;;;;;;;;;;;30.30;65.20;;;;;;5045421;28;19960;-83
2022/08/23 13:15:00;;;;;;;;;;;30.30;66.20;;;;;;5050916;28;19963;-83
2022/08/23 13:17:26;;;;;;;;;;;30.30;66.90;;;;;;5066318;28;19913;-83
2022/08/23 13:19:52;;;;;;;;;;;30.30;67.10;;;;;;5066592;28;19938;-81
2022/08/23 13:22:18;;;;;;;;;;;30.00;66.20;;;;;;5066086;28;19927;-83
2022/08/23 13:24:59;;;;;;;;;;;30.00;67.00;;;;;;5066045;28;19917;-83
2022/08/23 13:27:26;;;;;;;;;;;30.30;66.30;;;;;;5066281;28;19913;-83
2022/08/23 13:29:53;;;;;;;;;;;30.60;67.10;;;;;;5064234;28;19912;-83
2022/08/23 13:32:25;;;;;;;;;;;30.80;66.00;;;;;;5066185;28;19916;-82
2022/08/23 13:34:55;;;;;;;;;;;30.80;66.00;;;;;;5065692;28;19920;-83
2022/08/23 13:37:30;;;;;;;;;;;30.90;65.50;;;;;;5066108;28;19913;-83
2022/08/23 13:39:57;;;;;;;;;;;31.10;68.00;;;;;;5065870;28;19937;-83
2022/08/23 13:42:34;;;;;;;;;;;30.50;67.50;;;;;;5065659;28;20007;-83
2022/08/23 13:45:13;;;;;;;;;;;30.20;66.10;;;;;;5059776;28;19917;-83
2022/08/23 13:47:44;;;;;;;;;;;30.60;67.70;;;;;;5065427;28;20474;-83
2022/08/23 13:50:20;;;;;;;;;;;30.50;67.60;;;;;;5065555;28;19918;-83
2022/08/23 13:52:46;;;;;;;;;;;30.20;66.90;;;;;;5065529;28;19928;-82
2022/08/23 13:55:12;;;;;;;;;;;29.70;66.90;;;;;;5065242;28;19920;-83
2022/08/23 13:57:39;;;;;;;;;;;29.60;67.50;;;;;;5063594;28;19951;-76
2022/08/23 14:00:08;;;;;;;;;;;29.60;68.60;;;;;;5065295;28;19912;-76
2022/08/23 14:02:34;;;;;;;;;;;29.50;67.80;;;;;;5065592;28;20295;-76
2022/08/23 14:04:59;;;;;;;;;;;29.50;68.70;;;;;;5065487;28;19912;-76
2022/08/23 14:07:26;;;;;;;;;;;29.50;67.30;;;;;;5064982;28;20007;-76
2022/08/23 14:09:52;;;;;;;;;;;29.80;67.30;;;;;;5065518;28;19966;-76
2022/08/23 14:12:23;;;;;;;;;;;29.70;66.00;;;;;;5065168;28;19912;-76
2022/08/23 14:14:49;;;;;;;;;;;30.00;64.90;;;;;;5063598;28;19931;-76
2022/08/23 14:17:15;;;;;;;;;;;30.40;66.70;;;;;;5065450;28;19913;-76
2022/08/23 14:19:44;;;;;;;;;;;30.40;64.90;;;;;;5065245;28;19912;-76
2022/08/23 14:22:09;;;;;;;;;;;30.40;66.60;;;;;;5064746;28;19924;-76
2022/08/23 14:24:35;;;;;;;;;;;30.50;65.20;;;;;;5064110;28;19916;-76
2022/08/23 14:27:01;;;;;;;;;;;30.00;65.80;;;;;;5065117;28;20702;-76
2022/08/23 14:29:27;;;;;;;;;;;29.90;66.40;;;;;;5065209;28;19965;-76
2022/08/23 14:31:53;;;;;;;;;;;29.80;67.10;;;;;;5065223;28;19919;-76
2022/08/23 14:34:19;;;;;;;;;;;29.50;66.90;;;;;;5064956;28;20299;-76